Time;durP1;ratioP1;P1;durP2;ratioP2;P2;SDS_P1;SDS_P2;PMS_P1;PMS_P2;Temp;Humidity;BMP_temperature;BMP_pressure;BME280_temperature;BME280_humidity;BME280_pressure;Samples;Min_cycle;Max_cycle;Signal;HPM_P1;HPM_P2
2022/07/16 00:02:31;;;;;;;3.45;3.15;;;20.50;79.60;;;;;;5107015;27;20041;-59
2022/07/16 00:04:57;;;;;;;4.18;3.42;;;20.40;79.70;;;;;;5114499;27;20416;-59
2022/07/16 00:07:23;;;;;;;4.25;3.47;;;20.40;79.80;;;;;;5112766;28;20034;-59
2022/07/16 00:09:48;;;;;;;3.85;3.33;;;20.50;79.70;;;;;;5117250;27;20107;-59
2022/07/16 00:12:14;;;;;;;3.30;3.00;;;20.40;79.70;;;;;;5123188;27;20030;-59
2022/07/16 00:14:40;;;;;;;3.13;2.83;;;20.40;79.60;;;;;;5114949;27;20033;-59
2022/07/16 00:17:06;;;;;;;3.65;3.22;;;20.40;79.50;;;;;;5116428;27;20483;-59
2022/07/16 00:19:31;;;;;;;3.55;3.22;;;20.50;79.50;;;;;;5115321;27;20443;-59
2022/07/16 00:21:57;;;;;;;3.38;2.97;;;20.50;79.50;;;;;;5105263;27;20036;-59
2022/07/16 00:24:24;;;;;;;4.00;3.60;;;20.40;79.50;;;;;;5125028;27;20061;-59
2022/07/16 00:26:51;;;;;;;3.70;3.40;;;20.50;79.60;;;;;;5115798;27;20030;-59
2022/07/16 00:29:18;;;;;;;4.00;3.50;;;20.50;79.70;;;;;;5118778;27;20694;-59
2022/07/16 00:31:45;;;;;;;3.47;3.17;;;20.50;79.60;;;;;;5108224;27;20031;-59
2022/07/16 00:34:11;;;;;;;3.33;3.08;;;20.50;79.60;;;;;;5114365;27;20106;-59
2022/07/16 00:36:38;;;;;;;3.40;3.10;;;20.50;79.40;;;;;;5124269;27;20031;-58
2022/07/16 00:39:05;;;;;;;2.97;2.67;;;20.50;79.40;;;;;;5109780;27;20040;-59
2022/07/16 00:41:31;;;;;;;3.17;2.88;;;20.50;79.30;;;;;;5104359;27;20032;-59
2022/07/16 00:44:00;;;;;;;3.97;3.05;;;20.50;79.40;;;;;;5090047;28;20598;-58
2022/07/16 00:46:26;;;;;;;3.80;3.28;;;20.50;79.50;;;;;;5106270;27;20454;-59
2022/07/16 00:48:52;;;;;;;3.40;3.10;;;20.50;79.40;;;;;;5118697;27;20020;-59
2022/07/16 00:51:18;;;;;;;3.85;3.10;;;20.50;79.30;;;;;;5111452;27;20525;-59
2022/07/16 00:53:44;;;;;;;3.47;3.17;;;20.50;79.40;;;;;;5116780;27;20051;-59
2022/07/16 00:56:12;;;;;;;3.60;3.28;;;20.40;79.30;;;;;;5116889;27;20076;-59
2022/07/16 00:58:40;;;;;;;4.25;3.47;;;20.40;79.40;;;;;;5121251;27;20039;-59
2022/07/16 01:01:08;;;;;;;3.95;3.30;;;20.40;80.00;;;;;;5102576;27;20031;-57
2022/07/16 01:03:35;;;;;;;3.33;3.03;;;20.40;79.40;;;;;;5108014;27;20016;-57
2022/07/16 01:06:05;;;;;;;3.53;3.22;;;20.40;79.30;;;;;;5111745;28;20027;-57
2022/07/16 01:08:33;;;;;;;3.45;3.00;;;20.40;79.30;;;;;;5120235;27;20077;-57
2022/07/16 01:10:59;;;;;;;3.28;2.97;;;20.40;79.20;;;;;;5114163;27;20031;-57
2022/07/16 01:13:26;;;;;;;3.22;2.90;;;20.30;79.20;;;;;;5110681;27;20372;-59
2022/07/16 01:15:52;;;;;;;3.58;3.28;;;20.40;79.20;;;;;;5122468;27;20518;-58
2022/07/16 01:18:18;;;;;;;3.97;3.13;;;20.30;79.20;;;;;;5111154;27;20055;-59
2022/07/16 01:20:44;;;;;;;3.38;3.08;;;20.40;79.20;;;;;;5114438;27;20118;-59
2022/07/16 01:23:15;;;;;;;3.35;3.05;;;20.30;79.10;;;;;;5104005;28;20028;-59
2022/07/16 01:25:41;;;;;;;3.05;2.75;;;20.30;79.00;;;;;;5112650;28;20043;-59
2022/07/16 01:28:07;;;;;;;3.30;3.00;;;20.30;78.90;;;;;;5116504;27;20538;-59
2022/07/16 01:30:32;;;;;;;3.13;2.90;;;20.30;78.80;;;;;;5108701;27;20029;-59
2022/07/16 01:32:58;;;;;;;3.08;2.78;;;20.30;78.70;;;;;;5101869;27;20122;-58
2022/07/16 01:35:24;;;;;;;3.40;3.10;;;20.30;78.70;;;;;;5108587;27;20072;-59
2022/07/16 01:37:49;;;;;;;3.22;2.92;;;20.30;78.70;;;;;;5119106;27;20095;-59
2022/07/16 01:40:15;;;;;;;3.45;3.15;;;20.40;78.90;;;;;;5112920;28;20034;-59
2022/07/16 01:42:43;;;;;;;3.70;3.30;;;20.40;79.00;;;;;;5122663;27;20493;-59
2022/07/16 01:45:09;;;;;;;3.72;3.05;;;20.40;79.10;;;;;;5118710;27;20027;-59
2022/07/16 01:47:34;;;;;;;3.60;3.30;;;20.40;79.30;;;;;;5115589;27;20590;-59
2022/07/16 01:50:00;;;;;;;3.38;3.08;;;20.40;79.20;;;;;;5108493;28;20040;-58
2022/07/16 01:52:26;;;;;;;3.45;3.13;;;20.40;79.30;;;;;;5111895;27;20427;-58
2022/07/16 01:54:53;;;;;;;3.55;3.25;;;20.40;79.30;;;;;;5119707;28;20483;-59
2022/07/16 01:57:20;;;;;;;4.03;3.63;;;20.40;79.50;;;;;;5123381;28;20027;-59
2022/07/16 01:59:46;;;;;;;4.20;3.63;;;20.40;79.50;;;;;;5112422;28;20066;-57
2022/07/16 02:02:13;;;;;;;3.97;3.58;;;20.40;79.40;;;;;;5112748;28;20398;-59
2022/07/16 02:04:40;;;;;;;3.50;3.20;;;20.40;79.40;;;;;;5117607;28;20031;-59
2022/07/16 02:07:06;;;;;;;4.30;3.90;;;20.40;79.30;;;;;;5103650;28;20024;-59
2022/07/16 02:09:31;;;;;;;3.53;3.22;;;20.30;79.50;;;;;;5104102;28;20031;-59
2022/07/16 02:11:57;;;;;;;4.90;4.00;;;20.30;79.40;;;;;;5108901;28;20109;-59
2022/07/16 02:14:23;;;;;;;5.07;3.78;;;20.30;79.60;;;;;;5114385;28;20429;-59
2022/07/16 02:16:49;;;;;;;4.35;3.95;;;20.20;79.50;;;;;;5115282;28;20039;-59
2022/07/16 02:19:15;;;;;;;4.55;4.13;;;20.20;79.80;;;;;;5112862;28;20073;-59
2022/07/16 02:21:41;;;;;;;4.57;4.07;;;20.20;80.00;;;;;;5110056;28;20032;-58
2022/07/16 02:24:07;;;;;;;4.40;4.00;;;20.20;80.20;;;;;;5107209;28;20433;-59
2022/07/16 02:26:32;;;;;;;4.55;4.15;;;20.20;80.40;;;;;;5110737;28;20032;-59
2022/07/16 02:28:59;;;;;;;4.72;4.07;;;20.20;80.80;;;;;;5112442;28;20481;-59
2022/07/16 02:31:24;;;;;;;4.93;4.45;;;20.20;80.80;;;;;;5114283;28;20062;-59
2022/07/16 02:33:50;;;;;;;4.90;4.25;;;20.20;80.90;;;;;;5115068;28;20052;-59
2022/07/16 02:36:16;;;;;;;5.63;5.00;;;20.20;81.10;;;;;;5114286;28;20080;-59
2022/07/16 02:38:41;;;;;;;4.82;4.35;;;20.20;81.30;;;;;;5114555;28;20102;-57
2022/07/16 02:41:07;;;;;;;4.60;4.20;;;20.20;81.40;;;;;;5108069;28;20031;-57
2022/07/16 02:43:33;;;;;;;5.20;4.40;;;20.20;81.40;;;;;;5111141;28;20112;-57
2022/07/16 02:45:58;;;;;;;5.30;4.72;;;20.20;81.60;;;;;;5112607;28;20034;-56
2022/07/16 02:48:24;;;;;;;5.35;4.35;;;20.20;81.80;;;;;;5117520;28;20019;-57
2022/07/16 02:50:49;;;;;;;4.90;4.47;;;20.20;82.00;;;;;;5109346;28;20055;-57
2022/07/16 02:53:15;;;;;;;4.88;4.47;;;20.20;82.00;;;;;;5111934;28;20028;-57
2022/07/16 02:55:41;;;;;;;5.30;4.60;;;20.20;82.20;;;;;;5109361;28;20080;-57
2022/07/16 02:58:07;;;;;;;4.80;4.30;;;20.20;82.30;;;;;;5121400;28;20039;-57
2022/07/16 03:00:33;;;;;;;5.13;4.63;;;20.20;82.30;;;;;;5100739;27;20060;-59
2022/07/16 03:02:59;;;;;;;5.47;4.40;;;20.20;82.20;;;;;;5126714;27;20466;-59
2022/07/16 03:05:25;;;;;;;5.20;4.70;;;20.20;82.30;;;;;;5113010;27;20066;-58
2022/07/16 03:07:52;;;;;;;5.43;4.47;;;20.20;82.50;;;;;;5126212;27;20050;-59
2022/07/16 03:10:18;;;;;;;4.97;4.47;;;20.30;82.70;;;;;;5116186;28;20027;-59
2022/07/16 03:12:43;;;;;;;5.68;5.18;;;20.30;83.10;;;;;;5106267;28;20024;-59
2022/07/16 03:15:12;;;;;;;6.10;4.93;;;20.30;83.20;;;;;;5110045;27;20020;-59
2022/07/16 03:17:38;;;;;;;5.85;4.80;;;20.30;83.50;;;;;;5114724;27;20059;-59
2022/07/16 03:20:05;;;;;;;4.72;4.32;;;20.30;83.60;;;;;;5114482;27;20028;-59
2022/07/16 03:22:31;;;;;;;5.60;5.10;;;20.40;83.70;;;;;;5114107;27;20023;-59
2022/07/16 03:24:57;;;;;;;5.57;5.03;;;20.40;84.00;;;;;;5106933;28;20027;-59
2022/07/16 03:27:23;;;;;;;7.35;5.20;;;20.50;84.20;;;;;;5129382;27;20038;-59
2022/07/16 03:29:49;;;;;;;5.72;5.22;;;20.60;84.20;;;;;;5123795;27;20055;-59
2022/07/16 03:32:14;;;;;;;5.85;5.25;;;20.70;84.30;;;;;;5109490;27;20069;-59
2022/07/16 03:34:40;;;;;;;5.85;5.32;;;20.80;84.00;;;;;;5110146;27;20035;-56
2022/07/16 03:37:06;;;;;;;6.13;5.55;;;20.80;83.40;;;;;;5096931;27;20476;-57
2022/07/16 03:39:31;;;;;;;5.68;5.10;;;20.80;83.00;;;;;;5125009;27;20058;-56
2022/07/16 03:41:57;;;;;;;6.25;5.65;;;20.80;82.80;;;;;;5125653;27;20027;-57
2022/07/16 03:44:23;;;;;;;5.68;5.07;;;20.70;82.70;;;;;;5118759;27;20024;-57
2022/07/16 03:46:48;;;;;;;5.68;5.07;;;20.70;82.70;;;;;;5111082;28;20048;-57
2022/07/16 03:49:14;;;;;;;5.63;5.03;;;20.60;82.70;;;;;;5105299;28;20531;-57
2022/07/16 03:51:40;;;;;;;5.43;4.88;;;20.60;83.30;;;;;;5121775;27;20363;-57
2022/07/16 03:54:06;;;;;;;5.90;5.30;;;20.70;83.40;;;;;;5124055;27;20020;-57
2022/07/16 03:56:32;;;;;;;5.63;5.03;;;20.70;83.10;;;;;;5123832;27;20026;-56
2022/07/16 03:58:58;;;;;;;5.45;4.95;;;20.80;82.70;;;;;;5123855;27;20034;-57
2022/07/16 04:01:24;;;;;;;5.32;4.80;;;20.80;82.30;;;;;;5118294;27;20023;-57
2022/07/16 04:03:50;;;;;;;5.32;4.82;;;20.90;82.10;;;;;;5114548;27;20020;-57
2022/07/16 04:06:16;;;;;;;5.93;5.13;;;20.90;81.80;;;;;;5104120;27;20483;-57
2022/07/16 04:08:41;;;;;;;5.63;5.10;;;20.80;82.00;;;;;;5121745;27;20030;-57
2022/07/16 04:11:07;;;;;;;5.68;4.90;;;20.90;82.80;;;;;;5117538;27;20039;-57
2022/07/16 04:13:33;;;;;;;6.38;4.95;;;21.30;83.90;;;;;;5124293;27;20026;-57
2022/07/16 04:15:59;;;;;;;5.40;4.68;;;21.90;83.20;;;;;;5115458;27;20039;-57
2022/07/16 04:18:24;;;;;;;4.55;4.15;;;22.60;82.00;;;;;;5104871;28;20129;-57
2022/07/16 04:20:50;;;;;;;4.80;4.22;;;23.40;80.70;;;;;;5113054;27;20061;-57
2022/07/16 04:23:16;;;;;;;4.47;4.07;;;24.30;79.10;;;;;;5114262;27;20023;-57
2022/07/16 04:25:41;;;;;;;4.75;4.22;;;25.20;77.20;;;;;;5128207;27;20112;-57
2022/07/16 04:28:07;;;;;;;5.32;3.90;;;26.10;75.60;;;;;;5114609;28;20037;-57
2022/07/16 04:30:33;;;;;;;4.25;3.80;;;26.90;73.90;;;;;;5112517;27;20020;-57
2022/07/16 04:32:59;;;;;;;3.88;3.53;;;27.70;72.10;;;;;;5112678;28;20042;-57
2022/07/16 04:35:25;;;;;;;3.95;3.15;;;28.50;70.40;;;;;;5114489;27;20030;-58
2022/07/16 04:37:50;;;;;;;4.00;3.50;;;29.00;68.80;;;;;;5105882;27;20032;-58
2022/07/16 04:40:16;;;;;;;4.22;3.80;;;29.30;67.40;;;;;;5124098;27;20031;-58
2022/07/16 04:42:44;;;;;;;3.80;3.42;;;29.50;66.20;;;;;;5119242;27;20023;-58
2022/07/16 04:45:12;;;;;;;3.70;3.30;;;29.60;65.50;;;;;;5125276;27;20042;-58
2022/07/16 04:47:39;;;;;;;3.50;3.20;;;29.70;65.10;;;;;;5125628;27;20036;-58
2022/07/16 04:50:05;;;;;;;3.85;3.47;;;29.90;64.80;;;;;;5128908;27;20046;-58
2022/07/16 04:52:31;;;;;;;4.10;3.70;;;30.00;63.70;;;;;;5123569;27;20027;-58
2022/07/16 04:54:58;;;;;;;4.75;3.78;;;30.00;63.00;;;;;;5114373;27;20035;-58
2022/07/16 04:57:24;;;;;;;3.58;2.97;;;30.00;63.20;;;;;;5122524;27;20034;-57
2022/07/16 04:59:51;;;;;;;4.70;3.72;;;30.10;62.80;;;;;;5128789;27;20027;-58
2022/07/16 05:05:01;;;;;;;3.80;3.47;;;30.30;61.90;;;;;;5124662;27;20023;-58
2022/07/16 05:07:27;;;;;;;3.78;3.38;;;30.30;61.30;;;;;;5119714;27;20031;-58
2022/07/16 05:09:53;;;;;;;4.22;3.42;;;30.10;61.10;;;;;;5122211;27;20023;-58
2022/07/16 05:12:19;;;;;;;4.43;4.03;;;30.10;61.30;;;;;;5113544;27;20048;-58
2022/07/16 05:14:44;;;;;;;4.30;3.60;;;30.10;61.30;;;;;;5108322;28;20024;-58
2022/07/16 05:17:10;;;;;;;3.78;3.47;;;30.30;61.30;;;;;;5114337;27;20024;-57
2022/07/16 05:19:36;;;;;;;4.20;3.78;;;30.40;60.80;;;;;;5116911;28;20031;-57
2022/07/16 05:22:01;;;;;;;3.72;3.42;;;30.60;60.30;;;;;;5114868;28;20065;-58
2022/07/16 05:24:27;;;;;;;4.47;4.07;;;30.50;59.80;;;;;;5114845;28;20035;-58
2022/07/16 05:26:53;;;;;;;4.10;3.70;;;30.50;59.50;;;;;;5116855;27;20059;-58
2022/07/16 05:29:18;;;;;;;4.00;3.70;;;30.20;59.30;;;;;;5120805;27;20023;-58
2022/07/16 05:31:44;;;;;;;4.63;3.78;;;30.00;59.50;;;;;;5112850;28;20028;-58
2022/07/16 05:34:09;;;;;;;4.10;3.67;;;29.70;59.60;;;;;;5108777;27;20020;-58
2022/07/16 05:36:35;;;;;;;3.65;3.17;;;29.30;59.90;;;;;;5122180;27;20054;-58
2022/07/16 05:39:01;;;;;;;3.97;3.58;;;28.80;60.20;;;;;;5125245;27;20084;-58
2022/07/16 05:41:27;;;;;;;3.63;3.33;;;28.40;60.80;;;;;;5125542;27;20509;-56
2022/07/16 05:43:52;;;;;;;4.55;3.70;;;28.00;61.20;;;;;;5113784;27;20086;-58
2022/07/16 05:46:18;;;;;;;3.83;3.53;;;27.70;61.80;;;;;;5111047;27;20025;-58
2022/07/16 05:48:44;;;;;;;4.15;3.75;;;27.40;62.30;;;;;;5128075;27;20023;-57
2022/07/16 05:51:09;;;;;;;4.32;3.63;;;27.10;62.50;;;;;;5121712;27;20054;-57
2022/07/16 05:53:37;;;;;;;4.32;3.92;;;26.80;62.80;;;;;;5114007;28;20110;-58
2022/07/16 05:56:03;;;;;;;4.70;4.07;;;26.60;63.30;;;;;;5124733;27;20027;-58
2022/07/16 05:58:29;;;;;;;4.47;4.07;;;26.40;64.00;;;;;;5117847;28;20023;-57
2022/07/16 06:00:55;;;;;;;5.72;4.40;;;26.20;64.30;;;;;;5118275;28;20035;-58
2022/07/16 06:03:20;;;;;;;4.85;4.35;;;26.10;64.90;;;;;;5114785;28;20041;-58
2022/07/16 06:05:46;;;;;;;5.10;4.60;;;26.00;65.30;;;;;;5108624;28;20092;-57
2022/07/16 06:08:12;;;;;;;5.00;4.50;;;25.90;65.40;;;;;;5124801;28;20030;-58
2022/07/16 06:10:37;;;;;;;5.15;4.65;;;25.80;65.70;;;;;;5120599;28;20532;-58
2022/07/16 06:13:03;;;;;;;4.70;4.30;;;25.80;65.80;;;;;;5113325;28;20028;-58
2022/07/16 06:15:29;;;;;;;4.47;4.07;;;25.70;65.90;;;;;;5101238;28;20027;-58
2022/07/16 06:17:55;;;;;;;4.90;4.40;;;25.60;66.00;;;;;;5124201;28;20590;-58
2022/07/16 06:20:21;;;;;;;5.30;4.80;;;25.50;66.20;;;;;;5121909;28;20039;-58
2022/07/16 06:22:46;;;;;;;4.90;4.40;;;25.40;66.60;;;;;;5120360;28;20019;-58
2022/07/16 06:25:12;;;;;;;4.85;4.45;;;25.40;66.80;;;;;;5119127;28;20023;-58
2022/07/16 06:27:43;;;;;;;4.57;4.18;;;25.40;67.10;;;;;;5108479;28;20106;-58
2022/07/16 06:30:09;;;;;;;6.18;4.75;;;25.40;67.10;;;;;;5111738;28;20027;-58
2022/07/16 06:32:35;;;;;;;5.72;4.43;;;25.40;67.10;;;;;;5111686;28;20023;-58
2022/07/16 06:35:01;;;;;;;5.22;4.72;;;25.40;67.30;;;;;;5117065;28;20023;-58
2022/07/16 06:37:26;;;;;;;5.05;4.53;;;25.40;67.50;;;;;;5115825;27;20027;-58
2022/07/16 06:39:52;;;;;;;5.15;4.65;;;25.40;67.40;;;;;;5119420;27;20028;-57
2022/07/16 06:42:18;;;;;;;5.18;4.68;;;25.40;67.30;;;;;;5124100;27;20015;-58
2022/07/16 06:44:43;;;;;;;5.05;4.55;;;25.30;67.40;;;;;;5125180;27;20058;-58
2022/07/16 06:47:09;;;;;;;5.25;4.75;;;25.30;67.70;;;;;;5118502;27;20059;-58
2022/07/16 06:49:35;;;;;;;5.45;4.95;;;25.20;67.70;;;;;;5115619;27;20054;-58
2022/07/16 06:52:00;;;;;;;4.50;4.10;;;25.20;67.80;;;;;;5118116;27;20019;-58
2022/07/16 06:54:26;;;;;;;5.30;4.80;;;25.10;67.90;;;;;;5118016;27;20360;-58
2022/07/16 06:56:52;;;;;;;5.05;4.55;;;25.10;67.90;;;;;;5128824;27;20110;-58
2022/07/16 06:59:18;;;;;;;5.32;4.82;;;25.10;68.20;;;;;;5116712;27;20047;-57
2022/07/16 07:01:43;;;;;;;5.18;4.68;;;25.00;68.30;;;;;;5122886;27;20039;-58
2022/07/16 07:04:09;;;;;;;5.00;4.05;;;25.00;68.40;;;;;;5126599;27;20157;-57
2022/07/16 07:06:35;;;;;;;5.32;4.82;;;25.00;68.30;;;;;;5104205;27;20031;-58
2022/07/16 07:09:00;;;;;;;4.80;4.30;;;25.00;68.30;;;;;;5123256;27;20024;-57
2022/07/16 07:11:26;;;;;;;4.72;4.25;;;25.00;68.40;;;;;;5114812;28;20063;-58
2022/07/16 07:13:52;;;;;;;4.78;4.28;;;25.00;68.40;;;;;;5113349;27;20389;-58
2022/07/16 07:16:18;;;;;;;6.07;4.45;;;25.00;68.40;;;;;;5117059;27;20961;-57
2022/07/16 07:18:44;;;;;;;4.40;3.95;;;25.00;68.30;;;;;;5120359;27;20510;-58
2022/07/16 07:21:10;;;;;;;5.35;4.63;;;25.00;68.30;;;;;;5118143;27;20023;-58
2022/07/16 07:23:35;;;;;;;4.78;4.28;;;25.00;68.20;;;;;;5120657;27;20114;-58
2022/07/16 07:26:01;;;;;;;4.75;4.25;;;25.00;68.30;;;;;;5118073;27;20084;-58
2022/07/16 07:28:28;;;;;;;5.20;4.70;;;24.90;68.50;;;;;;5122345;27;20463;-57
2022/07/16 07:30:54;;;;;;;5.25;4.65;;;24.90;68.60;;;;;;5112617;27;20027;-58
2022/07/16 07:33:20;;;;;;;4.80;4.30;;;24.90;68.70;;;;;;5105084;27;20114;-58
2022/07/16 07:35:46;;;;;;;6.13;4.93;;;24.90;68.80;;;;;;5117984;27;20115;-58
2022/07/16 07:38:12;;;;;;;3.72;3.42;;;24.80;68.60;;;;;;5124027;27;20031;-58
2022/07/16 07:40:37;;;;;;;4.93;4.38;;;24.90;68.60;;;;;;5122135;27;20028;-58
2022/07/16 07:43:04;;;;;;;4.88;3.85;;;24.80;68.50;;;;;;5120784;27;20028;-57
2022/07/16 07:45:30;;;;;;;4.70;4.05;;;24.80;68.60;;;;;;5113244;27;20031;-57
2022/07/16 07:47:55;;;;;;;4.40;3.92;;;24.80;68.40;;;;;;5127847;27;20079;-58
2022/07/16 07:50:21;;;;;;;5.10;4.00;;;24.90;68.30;;;;;;5126896;27;20160;-58
2022/07/16 07:52:47;;;;;;;4.78;4.30;;;24.80;68.30;;;;;;5115829;27;20023;-57
2022/07/16 07:55:13;;;;;;;4.10;3.60;;;24.90;68.40;;;;;;5117404;27;20024;-57
2022/07/16 07:57:39;;;;;;;4.63;4.13;;;24.80;68.40;;;;;;5114587;27;20032;-58
2022/07/16 08:00:07;;;;;;;4.60;3.97;;;24.80;68.20;;;;;;5116362;27;20483;-58
2022/07/16 08:02:33;;;;;;;3.63;3.33;;;24.90;68.90;;;;;;5122166;27;20030;-59
2022/07/16 08:04:58;;;;;;;5.00;4.50;;;24.90;68.40;;;;;;5114295;27;20534;-59
2022/07/16 08:07:24;;;;;;;4.97;4.35;;;24.90;68.40;;;;;;5123422;27;20023;-57
2022/07/16 08:09:50;;;;;;;4.50;4.10;;;24.90;68.50;;;;;;5119244;27;20028;-57
2022/07/16 08:12:15;;;;;;;4.47;3.97;;;24.90;68.40;;;;;;5115219;27;20042;-57
2022/07/16 08:14:41;;;;;;;4.70;3.50;;;24.90;68.40;;;;;;5108449;27;20034;-57
2022/07/16 08:17:07;;;;;;;5.07;4.07;;;24.80;68.40;;;;;;5123461;27;20030;-57
2022/07/16 08:19:33;;;;;;;4.18;3.78;;;24.80;68.40;;;;;;5121069;27;20026;-57
2022/07/16 08:22:00;;;;;;;4.28;3.88;;;24.80;68.20;;;;;;5115421;27;20080;-57
2022/07/16 08:27:10;;;;;;;4.55;4.05;;;24.80;67.90;;;;;;5116874;27;20029;-57
2022/07/16 08:29:36;;;;;;;4.68;4.15;;;24.80;67.80;;;;;;5119968;27;20103;-57
2022/07/16 08:32:03;;;;;;;4.50;4.10;;;24.80;67.90;;;;;;5099776;28;20132;-57
2022/07/16 08:34:28;;;;;;;4.18;3.55;;;24.80;68.40;;;;;;5111487;27;20475;-57
2022/07/16 08:36:55;;;;;;;4.78;3.60;;;24.80;67.80;;;;;;5113028;28;20076;-56
2022/07/16 08:39:21;;;;;;;4.72;3.65;;;24.80;68.20;;;;;;5116478;27;20059;-57
2022/07/16 08:41:47;;;;;;;3.55;3.25;;;24.80;68.00;;;;;;5113438;27;20023;-57
2022/07/16 08:44:14;;;;;;;4.30;3.88;;;24.80;67.90;;;;;;5121992;27;20026;-57
2022/07/16 08:46:41;;;;;;;3.63;3.33;;;24.80;67.90;;;;;;5112956;27;20039;-57
2022/07/16 08:49:07;;;;;;;3.85;3.53;;;24.80;67.90;;;;;;5112979;27;20475;-57
2022/07/16 08:51:35;;;;;;;3.47;3.17;;;24.70;67.60;;;;;;5112767;27;20034;-59
2022/07/16 08:54:17;;;;;;;3.80;3.33;;;24.70;67.40;;;;;;5121907;27;20039;-59
2022/07/16 08:56:44;;;;;;;4.28;2.78;;;24.60;67.20;;;;;;5119343;27;20031;-59
2022/07/16 08:59:10;;;;;;;4.63;3.25;;;24.60;67.20;;;;;;5121638;27;20482;-59
2022/07/16 09:01:36;;;;;;;3.20;2.90;;;24.50;67.00;;;;;;5114849;27;20028;-58
2022/07/16 09:04:03;;;;;;;4.70;3.25;;;24.50;67.10;;;;;;5107490;27;20043;-57
2022/07/16 09:06:29;;;;;;;3.40;3.10;;;24.40;67.20;;;;;;5111393;27;20023;-57
2022/07/16 09:08:55;;;;;;;5.00;3.13;;;24.40;67.50;;;;;;5104647;27;20055;-57
2022/07/16 09:11:24;;;;;;;3.70;3.30;;;24.40;67.40;;;;;;5117435;27;20115;-59
2022/07/16 09:14:07;;;;;;;3.40;3.10;;;24.40;67.40;;;;;;5111671;27;20031;-59
2022/07/16 09:16:37;;;;;;;3.35;3.05;;;24.40;67.30;;;;;;5110996;28;20024;-59
2022/07/16 09:19:13;;;;;;;3.20;2.90;;;24.40;67.10;;;;;;5118064;27;20027;-59
2022/07/16 09:22:10;;;;;;;3.22;2.92;;;24.50;67.10;;;;;;5120006;27;20039;-59
2022/07/16 09:24:42;;;;;;;3.22;2.92;;;24.40;66.90;;;;;;5108448;27;20073;-57
2022/07/16 09:27:17;;;;;;;3.97;2.83;;;24.40;66.80;;;;;;5115117;27;20053;-57
2022/07/16 09:29:49;;;;;;;2.70;2.50;;;24.40;66.70;;;;;;5123093;27;20019;-56
2022/07/16 09:32:32;;;;;;;2.80;2.60;;;24.40;66.60;;;;;;5111066;28;20015;-57
2022/07/16 09:35:01;;;;;;;3.30;2.72;;;24.30;66.50;;;;;;5112836;27;20054;-57
2022/07/16 09:37:43;;;;;;;2.72;2.53;;;24.30;66.40;;;;;;5089058;28;20031;-57
2022/07/16 09:40:09;;;;;;;2.90;2.67;;;24.30;66.00;;;;;;5099753;28;20020;-56
2022/07/16 09:42:38;;;;;;;2.60;2.40;;;24.20;65.50;;;;;;5103011;28;20056;-57
2022/07/16 09:45:05;;;;;;;3.00;2.70;;;24.20;65.30;;;;;;5096125;28;20016;-59
2022/07/16 09:47:31;;;;;;;2.63;2.42;;;24.20;65.40;;;;;;5102193;27;20568;-57
2022/07/16 09:49:58;;;;;;;2.78;2.47;;;24.20;65.00;;;;;;5075907;28;20074;-57
2022/07/16 09:52:30;;;;;;;2.50;2.30;;;24.20;64.70;;;;;;5097509;28;20043;-58
2022/07/16 09:54:57;;;;;;;2.90;2.58;;;24.20;64.30;;;;;;5112918;28;20030;-58
2022/07/16 09:57:25;;;;;;;2.83;2.60;;;24.10;64.20;;;;;;5123286;27;20035;-58
2022/07/16 09:59:51;;;;;;;4.30;3.80;;;24.10;64.20;;;;;;5109664;28;20049;-58
2022/07/16 10:02:17;;;;;;;5.10;3.60;;;24.10;64.10;;;;;;5114102;28;20045;-57
2022/07/16 10:04:43;;;;;;;3.28;2.90;;;24.00;63.80;;;;;;5115822;28;20390;-58
2022/07/16 10:07:09;;;;;;;2.42;2.20;;;24.00;63.30;;;;;;5112673;28;20020;-58
2022/07/16 10:09:35;;;;;;;2.25;1.80;;;24.00;62.80;;;;;;5121241;28;20055;-58
2022/07/16 10:12:06;;;;;;;2.25;2.05;;;24.00;62.50;;;;;;5114168;27;20035;-58
2022/07/16 10:14:38;;;;;;;2.22;2.03;;;23.90;62.40;;;;;;5120332;27;20023;-58
2022/07/16 10:17:23;;;;;;;1.88;1.77;;;23.90;62.30;;;;;;5126649;27;20031;-58
2022/07/16 10:20:00;;;;;;;2.28;1.88;;;23.90;62.00;;;;;;5119760;27;20024;-58
2022/07/16 10:22:35;;;;;;;2.00;1.77;;;23.90;61.60;;;;;;5112537;27;20398;-58
2022/07/16 10:25:14;;;;;;;2.22;1.83;;;23.90;61.60;;;;;;5117269;28;20110;-58
2022/07/16 10:27:42;;;;;;;2.53;1.73;;;23.90;61.60;;;;;;5131030;27;20027;-58
2022/07/16 10:30:21;;;;;;;1.83;1.70;;;23.90;61.40;;;;;;5121072;27;20039;-58
2022/07/16 10:32:59;;;;;;;1.80;1.70;;;23.90;61.10;;;;;;5111890;28;20036;-57
2022/07/16 10:35:32;;;;;;;1.50;1.30;;;23.90;60.80;;;;;;5113841;27;20024;-58
2022/07/16 10:38:04;;;;;;;3.05;1.95;;;23.90;60.40;;;;;;5105143;27;20552;-58
2022/07/16 10:40:30;;;;;;;1.98;1.80;;;23.90;59.90;;;;;;5113908;27;20073;-58
2022/07/16 10:43:14;;;;;;;1.65;1.55;;;23.90;59.60;;;;;;5102110;28;20410;-58
2022/07/16 10:45:50;;;;;;;1.17;1.17;;;23.90;59.10;;;;;;5116342;28;20023;-58
2022/07/16 10:48:16;;;;;;;2.63;1.80;;;23.90;59.10;;;;;;5125164;27;20359;-58
2022/07/16 10:51:15;;;;;;;1.40;1.30;;;23.90;59.10;;;;;;5116340;27;20055;-58
2022/07/16 10:53:56;;;;;;;1.85;1.40;;;23.90;58.70;;;;;;5113804;27;20371;-58
2022/07/16 10:56:38;;;;;;;2.10;1.95;;;23.90;58.70;;;;;;5116625;28;20023;-58
2022/07/16 10:59:05;;;;;;;3.00;2.30;;;23.90;58.80;;;;;;5111733;27;20032;-58
2022/07/16 11:01:31;;;;;;;1.90;1.63;;;23.90;58.90;;;;;;5122399;27;20483;-58
2022/07/16 11:03:57;;;;;;;2.35;1.90;;;23.90;59.00;;;;;;5106588;27;20034;-58
2022/07/16 11:06:23;;;;;;;2.63;2.40;;;23.90;58.90;;;;;;5116735;27;20020;-58
2022/07/16 11:08:57;;;;;;;2.95;2.65;;;24.00;58.80;;;;;;5118511;27;20107;-58
2022/07/16 11:11:23;;;;;;;2.38;2.17;;;24.00;58.80;;;;;;5109460;27;20028;-58
2022/07/16 11:13:54;;;;;;;2.72;1.95;;;24.00;58.80;;;;;;5114182;27;20110;-58
2022/07/16 11:16:20;;;;;;;1.50;1.48;;;24.00;58.70;;;;;;5120410;27;20390;-59
2022/07/16 11:18:47;;;;;;;1.42;1.30;;;24.00;58.50;;;;;;5122101;27;20027;-58
2022/07/16 11:21:12;;;;;;;1.63;1.52;;;24.00;58.40;;;;;;5119320;27;20060;-59
2022/07/16 11:23:56;;;;;;;1.60;1.50;;;24.00;58.40;;;;;;5122763;27;20077;-59
2022/07/16 11:26:22;;;;;;;1.10;1.10;;;24.00;58.00;;;;;;5109985;27;20031;-59
2022/07/16 11:29:00;;;;;;;1.23;1.13;;;24.00;57.70;;;;;;5121996;27;20019;-59
2022/07/16 11:31:32;;;;;;;1.52;1.23;;;24.00;57.50;;;;;;5108676;27;20030;-59
2022/07/16 11:34:02;;;;;;;1.60;1.27;;;24.00;57.30;;;;;;5115114;27;20028;-59
2022/07/16 11:36:33;;;;;;;1.05;1.05;;;24.00;56.90;;;;;;5115611;27;20042;-59
2022/07/16 11:39:14;;;;;;;1.20;1.10;;;24.00;56.70;;;;;;5104965;27;20031;-58
2022/07/16 11:41:43;;;;;;;1.27;1.17;;;24.00;56.40;;;;;;5108072;28;20165;-58
2022/07/16 11:44:16;;;;;;;1.05;1.00;;;24.00;56.30;;;;;;5120293;27;20028;-58
2022/07/16 11:46:46;;;;;;;1.23;1.23;;;24.00;56.30;;;;;;5111628;28;20026;-58
2022/07/16 11:49:20;;;;;;;1.10;1.02;;;24.10;56.40;;;;;;5119454;27;20019;-58
2022/07/16 11:51:46;;;;;;;1.40;1.30;;;24.00;56.20;;;;;;5128510;27;20479;-58
2022/07/16 11:54:11;;;;;;;1.40;1.33;;;24.10;56.20;;;;;;5122658;27;20051;-59
2022/07/16 11:56:39;;;;;;;1.25;1.20;;;24.10;56.10;;;;;;5119101;27;20031;-59
2022/07/16 11:59:29;;;;;;;0.95;0.90;;;24.10;55.80;;;;;;5121266;27;20471;-59
2022/07/16 12:02:09;;;;;;;1.13;1.13;;;24.10;55.40;;;;;;5118848;27;20023;-59
2022/07/16 12:04:42;;;;;;;1.58;1.33;;;24.10;55.50;;;;;;5105802;27;20336;-59
2022/07/16 12:07:17;;;;;;;1.10;1.10;;;24.10;55.70;;;;;;5114413;27;20114;-59
2022/07/16 12:09:47;;;;;;;1.13;0.90;;;24.10;55.70;;;;;;5111531;27;20031;-59
2022/07/16 12:12:19;;;;;;;1.17;1.00;;;24.20;55.60;;;;;;5114128;28;20028;-58
2022/07/16 12:14:53;;;;;;;1.63;1.52;;;24.20;55.50;;;;;;5127181;27;20081;-59
2022/07/16 12:17:19;;;;;;;1.30;1.25;;;24.20;55.30;;;;;;5124883;27;20033;-59
2022/07/16 12:20:28;;;;;;;1.15;1.10;;;24.20;55.40;;;;;;5123184;27;20113;-59
2022/07/16 12:23:02;;;;;;;1.30;1.20;;;24.10;54.60;;;;;;5001607;28;20034;-59
2022/07/16 12:25:27;;;;;;;1.65;1.55;;;24.10;55.00;;;;;;5011046;28;20379;-59
2022/07/16 12:28:21;;;;;;;1.40;1.30;;;24.10;55.10;;;;;;5072257;27;20043;-59
2022/07/16 12:30:56;;;;;;;1.60;1.50;;;24.10;54.90;;;;;;5112791;27;20118;-59
2022/07/16 12:33:26;;;;;;;1.40;1.30;;;24.10;54.90;;;;;;5114619;27;20062;-57
2022/07/16 12:35:58;;;;;;;1.00;1.00;;;24.10;54.90;;;;;;5109130;28;20453;-57
2022/07/16 12:41:18;;;;;;;1.10;1.10;;;24.00;54.50;;;;;;5112830;28;20036;-57
2022/07/16 12:43:48;;;;;;;1.50;1.30;;;24.00;55.20;;;;;;5109046;27;20023;-57
2022/07/16 12:46:14;;;;;;;1.17;1.10;;;24.10;54.70;;;;;;5116890;27;20046;-57
2022/07/16 12:48:48;;;;;;;1.13;1.13;;;24.10;54.70;;;;;;5117512;27;20506;-57
2022/07/16 12:51:17;;;;;;;1.08;0.90;;;24.10;54.70;;;;;;5104221;28;20096;-57
2022/07/16 12:53:43;;;;;;;1.00;1.00;;;24.10;54.50;;;;;;5110514;27;20114;-57
2022/07/16 12:58:53;;;;;;;1.27;1.10;;;24.10;54.80;;;;;;5111451;27;20088;-57
2022/07/16 13:01:20;;;;;;;1.38;1.27;;;24.10;54.80;;;;;;5116566;27;20031;-57
2022/07/16 13:03:46;;;;;;;1.67;1.58;;;24.10;54.70;;;;;;5122202;27;20498;-57